Observations for NORMAN WESTHEIMER, OK (OUN)

KOUN 220515Z AUTO 16008KT 10SM CLR 25/22 A3005 RMK AO2  
KOUN 220455Z AUTO 16009KT 10SM CLR 25/22 A3006 RMK AO2  
KOUN 220435Z AUTO 16007KT 10SM CLR 26/22 A3006 RMK AO2  
KOUN 220415Z AUTO 16007KT 10SM CLR 26/21 A3006 RMK AO2  
KOUN 220355Z AUTO 16009KT 10SM CLR 26/21 A3005 RMK AO2  
KOUN 220335Z AUTO 17008KT 10SM CLR 26/21 A3005 RMK AO2 PWINO
KOUN 220315Z AUTO 16008KT CLR 27/21 A3005 RMK AO2   
KOUN 220255Z AUTO 16009KT CLR 27/21 A3004 RMK AO2 PWINO 
KOUN 220235Z AUTO 16007KT 10SM CLR 27/21 A3004 RMK AO2 PWINO
KOUN 220215Z AUTO 16009KT CLR 27/21 A3003 RMK AO2 PWINO 
KOUN 220155Z AUTO 17007KT CLR 27/22 A3003 RMK AO2 PWINO 
KOUN 220135Z AUTO 17007KT CLR 28/22 A3002 RMK AO2 PWINO 
KOUN 220115Z AUTO 14007KT 087V167 CLR 28/21 A3002 RMK AO2 PWINO 
KOUN 220055Z AUTO 16009KT 10SM CLR 30/21 A3002 RMK AO2  
KOUN 220035Z AUTO 16008KT 10SM CLR 30/21 A3002 RMK AO2  
KOUN 220015Z AUTO 17009KT CLR 31/21 A3002 RMK AO2 PWINO 
KOUN 212355Z AUTO 18010KT CLR 31/21 A3002 RMK AO2 PWINO 
KOUN 212335Z AUTO 18012G16KT SCT047 31/22 A3002 RMK AO2 PWINO   
KOUN 212315Z AUTO 17011G18KT SCT047 31/22 A3002 RMK AO2 PWINO   
KOUN 212255Z AUTO 17012G15KT CLR 32/22 A3003 RMK AO2 PWINO  
KOUN 212235Z AUTO 19009KT SCT049 31/21 A3003 RMK AO2 PWINO  
KOUN 212215Z AUTO 18015KT SCT049 32/21 A3004 RMK AO2 PWINO  
KOUN 212155Z AUTO 20013G17KT CLR 32/22 A3004 RMK AO2 PWINO  
KOUN 212135Z AUTO 20014G17KT CLR 32/21 A3005 RMK AO2 PWINO  
KOUN 212115Z AUTO 20012G17KT 10SM CLR 32/21 A3005 RMK AO2 PWINO 
KOUN 212055Z AUTO 18014G19KT CLR 32/21 A3005 RMK AO2 PWINO  
KOUN 212035Z AUTO 21013KT CLR 32/21 A3006 RMK AO2 PWINO 
KOUN 212015Z AUTO 19012G17KT CLR 32/21 A3007 RMK AO2 PWINO  
KOUN 211950Z AUTO 19014G17KT CLR 32/21 A3007 RMK AO2 PWINO  
KOUN 211935Z AUTO 19013G16KT CLR 31/21 A3008 RMK AO2 PWINO  
KOUN 211915Z AUTO 20010KT CLR 31/22 A3007 RMK AO2 PWINO 
KOUN 211855Z AUTO 17009KT CLR 30/22 A3007 RMK AO2 PWINO 
KOUN 211835Z AUTO 18010KT 10SM CLR 30/21 A3008 RMK AO2 PWINO
KOUN 211815Z AUTO 20011KT CLR 30/21 A3008 RMK AO2 PWINO 
KOUN 211755Z AUTO 18012G16KT CLR 30/21 A3008 RMK AO2 PWINO  
KOUN 211735Z AUTO 22011KT CLR 31/22 A3009 RMK AO2 PWINO 
KOUN 211715Z AUTO 21010KT CLR 31/22 A3009 RMK AO2 PWINO 
KOUN 211655Z AUTO 20011KT CLR 31/22 A3010 RMK AO2 PWINO 
KOUN 211635Z AUTO 20011G15KT CLR 30/22 A3010 RMK AO2 PWINO  
KOUN 211615Z AUTO 20010KT CLR 30/22 A3010 RMK AO2 PWINO 
KOUN 211555Z AUTO 18013KT 10SM CLR 30/22 A3010 RMK AO2 PWINO
KOUN 211535Z AUTO 19011KT 10SM CLR 29/22 A3010 RMK AO2 PWINO
KOUN 211515Z AUTO 19011G15KT CLR 28/22 A3010 RMK AO2 PWINO  
KOUN 211459Z 20011G15KT 10SM SKC 29/22 A3010
KOUN 211455Z AUTO 19011G15KT CLR 28/22 A3010 RMK AO2 PWINO  
KOUN 211435Z AUTO 20010KT CLR 27/22 A3010 RMK AO2 PWINO 
KOUN 211415Z AUTO 18008KT 10SM CLR 27/22 A3010 RMK AO2  
KOUN 211355Z AUTO 18009KT 10SM CLR 26/22 A3010 RMK AO2  
KOUN 211335Z AUTO 18008KT CLR 26/22 A3009 RMK AO2 PWINO 
KOUN 211315Z AUTO 18006KT CLR 25/22 A3009 RMK AO2 PWINO 
KOUN 211259Z 17007KT 10SM SKC 25/23 A3008
KOUN 211255Z AUTO 18007KT 10SM CLR 24/22 A3008 RMK AO2  
KOUN 211235Z AUTO 18006KT 10SM CLR 23/22 A3008 RMK AO2  
KOUN 211215Z AUTO 17007KT 23/22 A3007 RMK AO2 PWINO 
KOUN 211155Z AUTO 17006KT 10SM CLR 23/22 A3007 RMK AO2  
KOUN 211135Z AUTO 17007KT 10SM CLR 23/22 A3006 RMK AO2  
KOUN 211115Z AUTO 17007KT 10SM CLR 23/22 A3005 RMK AO2  
KOUN 211055Z AUTO 17007KT 23/22 A3005 RMK AO2 PWINO 
KOUN 211035Z AUTO 17008KT 10SM CLR 24/22 A3004 RMK AO2  
KOUN 211015Z AUTO 16009KT 10SM CLR 24/22 A3004 RMK AO2  
KOUN 210955Z AUTO 16009KT 10SM CLR 25/22 A3004 RMK AO2 LTG DSNT N   
KOUN 210935Z AUTO 16010KT 25/22 A3004 RMK AO2 PWINO 
KOUN 210915Z AUTO 16009KT 25/22 A3005 RMK AO2 LTG DSNT N PWINO  
KOUN 210855Z AUTO 16009G14KT 25/22 A3004 RMK AO2 PWINO  
KOUN 210835Z AUTO 16009KT 10SM CLR 25/22 A3005 RMK AO2 LTG DSNT N   
KOUN 210815Z AUTO 16009KT 25/22 A3005 RMK AO2 PWINO 
KOUN 210755Z AUTO 17007KT 10SM CLR 25/22 A3005 RMK AO2  
KOUN 210735Z AUTO 16008KT CLR 25/22 A3005 RMK AO2   
KOUN 210715Z AUTO 16007KT CLR 25/22 A3005 RMK AO2   
KOUN 210655Z AUTO 16008KT 10SM CLR 25/22 A3005 RMK AO2 PWINO
KOUN 210635Z AUTO 16007KT 10SM CLR 26/22 A3006 RMK AO2  
KOUN 210615Z AUTO 15008KT CLR 26/22 A3006 RMK AO2   
KOUN 210555Z AUTO 15010KT 10SM CLR 26/22 A3006 RMK AO2  
KOUN 210535Z AUTO 15008KT 10SM CLR 26/22 A3007 RMK AO2  
KOUN 210515Z AUTO 15010KT CLR 27/22 A3007 RMK AO2   
KOUN 210455Z AUTO 16010KT CLR 27/22 A3006 RMK AO2 PWINO 
KOUN 210440Z AUTO 15010KT CLR 27/22 A3006 RMK AO2 PWINO